createdAt,value
2023-04-08T00:00:53.550Z,1.93
2023-04-08T00:03:22.012Z,1.77
2023-04-08T00:05:50.178Z,1.90
2023-04-08T00:08:19.584Z,1.83
2023-04-08T00:10:47.521Z,1.70
2023-04-08T00:13:15.957Z,1.83
2023-04-08T00:15:43.857Z,1.70
2023-04-08T00:18:11.848Z,1.53
2023-04-08T00:20:39.779Z,1.50
2023-04-08T00:23:07.657Z,1.87
2023-04-08T00:25:37.062Z,1.80
2023-04-08T00:28:05.039Z,1.60
2023-04-08T00:30:33.073Z,1.50
2023-04-08T00:33:01.992Z,1.80
2023-04-08T00:35:30.254Z,1.83
2023-04-08T00:37:58.191Z,1.90
2023-04-08T00:40:26.163Z,1.50
2023-04-08T00:42:55.709Z,1.87
2023-04-08T00:45:23.700Z,1.50
2023-04-08T00:47:53.096Z,1.87
2023-04-08T00:50:21.428Z,1.80
2023-04-08T00:52:49.428Z,1.83
2023-04-08T00:55:17.610Z,1.87
2023-04-08T00:57:45.850Z,1.43
2023-04-08T01:00:16.239Z,2.20
2023-04-08T01:02:46.746Z,1.80
2023-04-08T01:05:16.449Z,1.77
2023-04-08T01:07:47.870Z,1.97
2023-04-08T01:10:17.665Z,1.87
2023-04-08T01:12:49.706Z,1.83
2023-04-08T01:15:19.121Z,1.90
2023-04-08T01:17:47.560Z,2.07
2023-04-08T01:20:16.936Z,2.30
2023-04-08T01:22:54.942Z,1.80
2023-04-08T01:25:24.865Z,2.10
2023-04-08T01:27:56.548Z,2.10
2023-04-08T01:30:26.094Z,2.03
2023-04-08T01:32:54.880Z,2.13
2023-04-08T01:35:23.292Z,1.80
2023-04-08T01:37:52.545Z,2.00
2023-04-08T01:40:21.007Z,2.10
2023-04-08T01:42:49.804Z,2.00
2023-04-08T01:45:19.708Z,1.93
2023-04-08T01:47:48.656Z,2.20
2023-04-08T01:50:17.244Z,1.93
2023-04-08T01:52:46.266Z,2.07
2023-04-08T01:55:14.281Z,2.37
2023-04-08T01:57:43.093Z,1.80
2023-04-08T02:00:12.460Z,2.10
2023-04-08T02:02:44.166Z,2.10
2023-04-08T02:05:12.288Z,1.80
2023-04-08T02:07:40.266Z,2.03
2023-04-08T02:10:08.660Z,1.90
2023-04-08T02:12:36.612Z,1.83
2023-04-08T02:15:04.898Z,2.10
2023-04-08T02:17:35.866Z,2.47
2023-04-08T02:20:07.775Z,2.03
2023-04-08T02:22:40.201Z,1.90
2023-04-08T02:25:10.631Z,2.20
2023-04-08T02:27:39.212Z,2.07
2023-04-08T02:30:08.192Z,2.20
2023-04-08T02:32:36.661Z,2.30
2023-04-08T02:35:05.388Z,2.07
2023-04-08T02:37:34.985Z,2.23
2023-04-08T02:40:02.960Z,2.13
2023-04-08T02:42:31.105Z,2.07
2023-04-08T02:44:59.183Z,2.00
2023-04-08T02:47:27.109Z,1.63
2023-04-08T02:49:55.391Z,1.90
2023-04-08T02:52:23.343Z,2.00
2023-04-08T02:54:52.647Z,1.77
2023-04-08T02:57:20.763Z,1.87
2023-04-08T02:59:48.672Z,2.40
2023-04-08T03:02:16.658Z,1.80
2023-04-08T03:04:44.617Z,2.07
2023-04-08T03:07:12.552Z,1.67
2023-04-08T03:09:40.466Z,2.23
2023-04-08T03:12:09.802Z,2.03
2023-04-08T03:14:37.715Z,2.17
2023-04-08T03:17:05.666Z,2.23
2023-04-08T03:19:33.598Z,2.30
2023-04-08T03:22:01.492Z,1.50
2023-04-08T03:24:29.472Z,1.87
2023-04-08T03:26:57.358Z,1.77
2023-04-08T03:29:27.188Z,1.73
2023-04-08T03:31:55.313Z,1.90
2023-04-08T03:34:23.229Z,2.20
2023-04-08T03:36:51.193Z,2.13
2023-04-08T03:39:19.095Z,2.03
2023-04-08T03:41:47.014Z,1.80
2023-04-08T03:44:14.937Z,2.20
2023-04-08T03:46:44.308Z,2.30
2023-04-08T03:49:12.354Z,1.73
2023-04-08T03:51:40.775Z,2.37
2023-04-08T03:54:08.900Z,1.77
2023-04-08T03:56:36.963Z,1.90
2023-04-08T03:59:04.927Z,1.83
2023-04-08T04:01:32.856Z,1.90
2023-04-08T04:04:02.460Z,2.00
2023-04-08T04:06:30.458Z,2.03
2023-04-08T04:08:58.368Z,2.00
2023-04-08T04:11:26.630Z,1.70
2023-04-08T04:13:54.566Z,2.00
2023-04-08T04:16:22.779Z,1.90
2023-04-08T04:18:51.072Z,1.70
2023-04-08T04:21:20.590Z,1.67
2023-04-08T04:23:48.476Z,1.90
2023-04-08T04:26:16.531Z,1.77
2023-04-08T04:28:44.495Z,2.00
2023-04-08T04:31:19.548Z,1.93
2023-04-08T04:33:47.532Z,1.93
2023-04-08T04:36:15.509Z,1.80
2023-04-08T04:38:44.906Z,1.90
2023-04-08T04:41:12.972Z,1.73
2023-04-08T04:43:40.898Z,1.60
2023-04-08T04:46:09.316Z,2.00
2023-04-08T04:48:37.583Z,2.37
2023-04-08T04:51:07.631Z,1.83
2023-04-08T04:53:35.669Z,1.90
2023-04-08T04:56:05.071Z,2.03
2023-04-08T04:58:33.093Z,1.73
2023-04-08T05:01:01.008Z,1.87
2023-04-08T05:03:29.086Z,1.90
2023-04-08T05:05:57.046Z,2.00
2023-04-08T05:08:26.649Z,2.17
2023-04-08T05:10:56.656Z,2.10
2023-04-08T05:13:26.218Z,1.60
2023-04-08T05:15:54.147Z,1.77
2023-04-08T05:18:22.045Z,1.80
2023-04-08T05:20:49.972Z,2.00
2023-04-08T05:23:17.914Z,2.27
2023-04-08T05:25:46.253Z,2.40
2023-04-08T05:28:14.225Z,2.77
2023-04-08T05:30:43.548Z,2.30
2023-04-08T05:33:11.998Z,2.00
2023-04-08T05:35:40.053Z,2.40
2023-04-08T05:38:08.049Z,2.67
2023-04-08T05:40:36.026Z,2.30
2023-04-08T05:43:04.020Z,2.63
2023-04-08T05:45:32.070Z,2.53
2023-04-08T05:48:01.458Z,2.90
2023-04-08T05:50:29.610Z,2.50
2023-04-08T05:52:57.662Z,2.63
2023-04-08T05:55:26.011Z,2.97
2023-04-08T05:57:53.929Z,2.43
2023-04-08T06:00:22.147Z,2.57
2023-04-08T06:02:50.272Z,2.90
2023-04-08T06:05:19.997Z,2.50
2023-04-08T06:07:47.945Z,3.07
2023-04-08T06:10:16.195Z,3.17
2023-04-08T06:12:44.073Z,2.90
2023-04-08T06:15:12.003Z,2.97
2023-04-08T06:17:40.272Z,3.03
2023-04-08T06:20:09.441Z,2.83
2023-04-08T06:22:39.198Z,3.47
2023-04-08T06:25:07.626Z,3.77
2023-04-08T06:27:35.633Z,3.77
2023-04-08T06:30:03.627Z,3.73
2023-04-08T06:32:31.573Z,3.30
2023-04-08T06:34:59.608Z,3.23
2023-04-08T06:37:27.592Z,2.77
2023-04-08T06:39:56.931Z,3.30
2023-04-08T06:42:24.908Z,3.20
2023-04-08T06:44:52.873Z,2.97
2023-04-08T06:47:20.881Z,2.60
2023-04-08T06:49:48.823Z,3.23
2023-04-08T06:52:17.115Z,3.23
2023-04-08T06:54:44.997Z,3.60
2023-04-08T06:57:14.315Z,3.40
2023-04-08T06:59:42.361Z,3.30
2023-04-08T07:02:10.280Z,3.60
2023-04-08T07:04:38.184Z,3.43
2023-04-08T07:07:06.167Z,3.50
2023-04-08T07:09:34.105Z,3.33
2023-04-08T07:12:02.005Z,3.83
2023-04-08T07:14:31.440Z,3.40
2023-04-08T07:16:59.343Z,3.40
2023-04-08T07:19:27.317Z,3.97
2023-04-08T07:21:55.245Z,3.40
2023-04-08T07:24:23.190Z,4.20
2023-04-08T07:26:51.585Z,3.73
2023-04-08T07:29:19.606Z,3.20
2023-04-08T07:31:48.948Z,3.30
2023-04-08T07:34:16.855Z,3.80
2023-04-08T07:36:44.836Z,4.43
2023-04-08T07:39:12.854Z,3.60
2023-04-08T07:41:40.816Z,3.17
2023-04-08T07:44:08.913Z,4.03
2023-04-08T07:46:38.135Z,5.87
2023-04-08T07:49:07.491Z,4.23
2023-04-08T07:51:35.466Z,3.97
2023-04-08T07:54:03.470Z,4.30
2023-04-08T07:56:31.460Z,3.77
2023-04-08T07:58:59.583Z,3.63
2023-04-08T08:01:31.375Z,3.60
2023-04-08T08:03:59.788Z,3.20
2023-04-08T08:06:29.310Z,3.50
2023-04-08T08:08:57.237Z,3.77
2023-04-08T08:11:25.292Z,3.33
2023-04-08T08:13:53.324Z,3.60
2023-04-08T08:16:21.509Z,3.20
2023-04-08T08:18:49.606Z,3.27
2023-04-08T08:21:17.571Z,3.47
2023-04-08T08:23:47.366Z,3.37
2023-04-08T08:26:15.317Z,3.23
2023-04-08T08:28:43.262Z,3.30
2023-04-08T08:31:11.456Z,3.40
2023-04-08T08:33:39.394Z,3.50
2023-04-08T08:36:07.532Z,3.37
2023-04-08T08:38:35.569Z,3.17
2023-04-08T08:41:05.237Z,3.10
2023-04-08T08:43:34.761Z,2.70
2023-04-08T08:46:02.743Z,3.30
2023-04-08T08:48:30.809Z,2.90
2023-04-08T08:50:58.942Z,2.80
2023-04-08T08:53:31.369Z,2.93
2023-04-08T08:56:17.279Z,2.53
2023-04-08T08:58:49.393Z,2.93
2023-04-08T09:01:33.536Z,2.63
2023-04-08T09:04:12.385Z,2.63
2023-04-08T09:06:40.492Z,2.53
2023-04-08T09:09:10.653Z,2.70
2023-04-08T09:11:40.002Z,2.67
2023-04-08T09:14:18.376Z,2.30
2023-04-08T09:16:46.841Z,2.83
2023-04-08T09:19:14.826Z,2.70
2023-04-08T09:21:42.755Z,2.60
2023-04-08T09:24:11.523Z,2.60
2023-04-08T09:26:39.443Z,2.60
2023-04-08T09:29:23.996Z,2.60
2023-04-08T09:31:56.937Z,2.23
2023-04-08T09:34:25.282Z,2.57
2023-04-08T09:36:53.554Z,2.60
2023-04-08T09:39:21.755Z,2.53
2023-04-08T09:41:50.228Z,2.30
2023-04-08T09:44:18.628Z,2.77
2023-04-08T09:46:51.916Z,2.40
2023-04-08T09:49:27.280Z,2.57
2023-04-08T09:51:58.360Z,2.37
2023-04-08T09:54:28.258Z,2.30
2023-04-08T09:57:00.298Z,2.13
2023-04-08T09:59:28.893Z,2.20
2023-04-08T10:01:57.857Z,2.53
2023-04-08T10:04:28.037Z,2.23
2023-04-08T10:06:59.521Z,2.40
2023-04-08T10:09:28.431Z,2.03
2023-04-08T10:11:56.621Z,2.53
2023-04-08T10:14:28.181Z,2.10
2023-04-08T10:17:10.886Z,2.43
2023-04-08T10:19:41.443Z,2.10
2023-04-08T10:22:28.332Z,2.53
2023-04-08T10:25:11.511Z,2.20
2023-04-08T10:27:42.600Z,2.17
2023-04-08T10:30:40.241Z,2.37
2023-04-08T10:33:11.565Z,2.40
2023-04-08T10:35:43.422Z,2.17
2023-04-08T10:38:13.057Z,2.77
2023-04-08T10:40:42.736Z,2.20
2023-04-08T10:43:11.340Z,2.40
2023-04-08T10:45:39.373Z,2.27
2023-04-08T10:48:14.297Z,2.20
2023-04-08T10:50:43.760Z,2.37
2023-04-08T10:53:12.045Z,2.00
2023-04-08T10:55:39.930Z,1.97
2023-04-08T10:58:08.849Z,1.70
2023-04-08T11:00:37.488Z,1.73
2023-04-08T11:03:06.262Z,2.00
2023-04-08T11:05:34.300Z,1.90
2023-04-08T11:08:04.244Z,1.87
2023-04-08T11:10:32.272Z,1.73
2023-04-08T11:13:00.143Z,2.03
2023-04-08T11:15:29.610Z,2.10
2023-04-08T11:17:57.808Z,2.00
2023-04-08T11:20:26.213Z,1.80
2023-04-08T11:22:54.113Z,1.73
2023-04-08T11:25:23.540Z,2.10
2023-04-08T11:27:51.906Z,1.57
2023-04-08T11:30:19.882Z,1.80
2023-04-08T11:32:47.842Z,1.50
2023-04-08T11:35:17.909Z,1.80
2023-04-08T11:37:47.895Z,1.93
2023-04-08T11:40:21.175Z,1.80
2023-04-08T11:42:50.616Z,1.50
2023-04-08T11:45:19.746Z,1.40
2023-04-08T11:47:48.738Z,1.70
2023-04-08T11:50:24.190Z,1.50
2023-04-08T11:52:52.780Z,1.57
2023-04-08T11:55:24.194Z,1.77
2023-04-08T11:57:53.617Z,1.77
2023-04-08T12:00:21.751Z,1.50
2023-04-08T12:02:50.130Z,1.57
2023-04-08T12:05:18.439Z,1.70
2023-04-08T12:07:46.440Z,1.93
2023-04-08T12:10:14.697Z,1.60
2023-04-08T12:12:42.619Z,1.90
2023-04-08T12:15:12.530Z,1.80
2023-04-08T12:17:40.947Z,1.47
2023-04-08T12:20:09.179Z,1.57
2023-04-08T12:22:37.124Z,1.90
2023-04-08T12:25:06.913Z,1.57
2023-04-08T12:27:34.918Z,1.50
2023-04-08T12:30:03.218Z,1.70
2023-04-08T12:32:32.644Z,1.70
2023-04-08T12:35:00.674Z,2.10
2023-04-08T12:37:28.760Z,1.80
2023-04-08T12:39:56.774Z,1.30
2023-04-08T12:42:24.660Z,1.30
2023-04-08T12:44:52.839Z,1.60
2023-04-08T12:47:20.978Z,1.67
2023-04-08T12:49:50.296Z,1.60
2023-04-08T12:52:18.846Z,1.80
2023-04-08T12:54:46.888Z,1.90
2023-04-08T12:57:14.846Z,1.70
2023-04-08T12:59:42.788Z,1.30
2023-04-08T13:02:10.773Z,1.70
2023-04-08T13:04:38.801Z,1.60
2023-04-08T13:07:08.297Z,1.40
2023-04-08T13:09:36.225Z,1.47
2023-04-08T13:12:04.296Z,1.20
2023-04-08T13:14:32.208Z,1.33
2023-04-08T13:17:00.152Z,1.33
2023-04-08T13:19:28.102Z,1.10
2023-04-08T13:21:56.290Z,1.30
2023-04-08T13:24:25.716Z,1.17
2023-04-08T13:26:53.595Z,1.40
2023-04-08T13:29:21.624Z,1.40
2023-04-08T13:31:49.542Z,1.00
2023-04-08T13:34:17.546Z,1.40
2023-04-08T13:36:45.551Z,1.30
2023-04-08T13:39:13.441Z,1.10
2023-04-08T13:41:42.796Z,1.00
2023-04-08T13:44:10.757Z,1.13
2023-04-08T13:46:39.789Z,1.00
2023-04-08T13:49:07.749Z,1.20
2023-04-08T13:51:35.661Z,1.10
2023-04-08T13:54:03.688Z,1.00
2023-04-08T13:56:31.634Z,1.30
2023-04-08T13:59:01.087Z,0.90
2023-04-08T14:01:29.306Z,1.40
2023-04-08T14:03:57.250Z,1.03
2023-04-08T14:06:25.197Z,1.30
2023-04-08T14:08:53.424Z,1.00
2023-04-08T14:11:22.035Z,1.00
2023-04-08T14:13:49.973Z,0.90
2023-04-08T14:16:19.904Z,1.23
2023-04-08T14:18:47.977Z,1.30
2023-04-08T14:21:18.352Z,0.90
2023-04-08T14:23:46.848Z,0.90
2023-04-08T14:26:14.804Z,0.90
2023-04-08T14:28:42.795Z,0.93
2023-04-08T14:31:10.967Z,0.80
2023-04-08T14:33:40.929Z,1.20
2023-04-08T14:36:08.962Z,1.20
2023-04-08T14:38:36.944Z,0.93
2023-04-08T14:41:04.815Z,0.90
2023-04-08T14:43:32.687Z,1.03
2023-04-08T14:46:01.613Z,1.07
2023-04-08T14:48:30.786Z,1.40
2023-04-08T14:51:00.205Z,0.90
2023-04-08T14:53:28.133Z,1.30
2023-04-08T14:55:56.098Z,1.30
2023-04-08T14:58:24.603Z,1.27
2023-04-08T15:00:52.671Z,1.40
2023-04-08T15:03:20.632Z,1.20
2023-04-08T15:05:48.747Z,1.23
2023-04-08T15:08:18.052Z,0.80
2023-04-08T15:10:45.932Z,1.07
2023-04-08T15:13:13.870Z,1.10
2023-04-08T15:15:41.982Z,1.10
2023-04-08T15:18:09.991Z,1.00
2023-04-08T15:20:37.983Z,0.87
2023-04-08T15:23:06.242Z,1.30
2023-04-08T15:25:35.588Z,0.97
2023-04-08T15:28:03.963Z,0.90
2023-04-08T15:30:35.566Z,1.27
2023-04-08T15:33:06.663Z,1.40
2023-04-08T15:35:34.719Z,1.30
2023-04-08T15:38:02.668Z,1.00
2023-04-08T15:40:32.376Z,1.10
2023-04-08T15:43:01.709Z,0.80
2023-04-08T15:45:29.913Z,0.90
2023-04-08T15:47:57.837Z,1.00
2023-04-08T15:50:29.489Z,1.07
2023-04-08T15:52:57.675Z,1.20
2023-04-08T15:55:25.666Z,1.30
2023-04-08T15:57:56.681Z,1.20
2023-04-08T16:00:26.297Z,1.30
2023-04-08T16:02:54.274Z,1.20
2023-04-08T16:05:22.402Z,1.20
2023-04-08T16:07:50.336Z,1.03
2023-04-08T16:10:18.249Z,1.33
2023-04-08T16:12:46.418Z,1.20
2023-04-08T16:15:14.342Z,1.03
2023-04-08T16:17:43.655Z,1.03
2023-04-08T16:20:12.464Z,1.30
2023-04-08T16:22:40.568Z,0.97
2023-04-08T16:25:09.495Z,1.27
2023-04-08T16:27:38.649Z,1.27
2023-04-08T16:30:07.040Z,1.20
2023-04-08T16:32:35.015Z,1.07
2023-04-08T16:35:04.457Z,1.00
2023-04-08T16:37:32.399Z,1.10
2023-04-08T16:40:00.552Z,0.93
2023-04-08T16:42:28.582Z,1.43
2023-04-08T16:44:59.740Z,1.43
2023-04-08T16:47:27.832Z,1.20
2023-04-08T16:49:56.176Z,1.13
2023-04-08T16:52:25.501Z,1.00
2023-04-08T16:54:53.565Z,1.13
2023-04-08T16:57:21.484Z,1.23
2023-04-08T16:59:49.368Z,1.40
2023-04-08T17:02:17.473Z,1.17
2023-04-08T17:04:45.499Z,1.30
2023-04-08T17:07:14.554Z,1.20
2023-04-08T17:09:44.368Z,1.00
2023-04-08T17:12:12.318Z,1.10
2023-04-08T17:14:40.750Z,1.37
2023-04-08T17:17:08.715Z,1.10
2023-04-08T17:19:36.839Z,1.20
2023-04-08T17:22:04.760Z,1.40
2023-04-08T17:24:32.691Z,1.70
2023-04-08T17:27:02.015Z,1.00
2023-04-08T17:29:29.919Z,1.37
2023-04-08T17:31:57.852Z,1.40
2023-04-08T17:34:26.484Z,1.30
2023-04-08T17:36:54.361Z,1.40
2023-04-08T17:39:22.260Z,1.47
2023-04-08T17:41:50.127Z,1.63
2023-04-08T17:44:19.497Z,1.47
2023-04-08T17:46:47.405Z,1.23
2023-04-08T17:49:15.362Z,1.40
2023-04-08T17:51:43.240Z,1.07
2023-04-08T17:54:11.985Z,2.00
2023-04-08T17:56:40.012Z,1.50
2023-04-08T17:59:07.929Z,1.50
2023-04-08T18:01:37.926Z,1.50
2023-04-08T18:04:08.310Z,1.73
2023-04-08T18:06:36.592Z,1.20
2023-04-08T18:09:04.906Z,1.80
2023-04-08T18:11:32.802Z,1.30
2023-04-08T18:14:00.820Z,1.13
2023-04-08T18:16:28.892Z,1.60
2023-04-08T18:18:58.285Z,1.83
2023-04-08T18:21:26.235Z,1.53
2023-04-08T18:23:54.419Z,0.93
2023-04-08T18:26:22.775Z,1.60
2023-04-08T18:28:50.770Z,1.30
2023-04-08T18:31:18.726Z,1.47
2023-04-08T18:33:46.673Z,1.40
2023-04-08T18:36:16.078Z,1.67
2023-04-08T18:38:44.953Z,1.50
2023-04-08T18:41:13.541Z,1.20
2023-04-08T18:43:41.627Z,1.23
2023-04-08T18:46:09.605Z,1.30
2023-04-08T18:48:37.536Z,1.40
2023-04-08T18:51:05.523Z,1.43
2023-04-08T18:53:34.962Z,1.73
2023-04-08T18:56:02.995Z,1.47
2023-04-08T18:58:32.093Z,1.47
2023-04-08T19:01:00.010Z,1.60
2023-04-08T19:03:28.070Z,1.40
2023-04-08T19:05:56.056Z,1.57
2023-04-08T19:08:24.054Z,2.10
2023-04-08T19:10:53.396Z,1.67
2023-04-08T19:13:23.166Z,1.60
2023-04-08T19:15:51.387Z,1.70
2023-04-08T19:18:19.432Z,2.47
2023-04-08T19:20:47.514Z,1.50
2023-04-08T19:23:15.451Z,1.30
2023-04-08T19:25:44.135Z,1.80
2023-04-08T19:28:14.392Z,1.30
2023-04-08T19:30:42.672Z,1.70
2023-04-08T19:33:10.863Z,1.77
2023-04-08T19:35:38.887Z,1.80
2023-04-08T19:38:06.932Z,1.80
2023-04-08T19:40:34.865Z,1.70
2023-04-08T19:43:02.760Z,2.00
2023-04-08T19:45:32.111Z,1.90
2023-04-08T19:48:00.222Z,1.87
2023-04-08T19:50:28.364Z,1.80
2023-04-08T19:52:56.338Z,1.57
2023-04-08T19:55:24.628Z,1.97
2023-04-08T19:57:52.987Z,2.30
2023-04-08T20:00:21.105Z,1.80
2023-04-08T20:02:50.590Z,2.00
2023-04-08T20:05:18.743Z,2.10
2023-04-08T20:07:46.663Z,1.90
2023-04-08T20:10:14.675Z,2.00
2023-04-08T20:12:42.653Z,1.97
2023-04-08T20:15:23.018Z,2.07
2023-04-08T20:17:54.131Z,1.77
2023-04-08T20:20:23.049Z,2.00
2023-04-08T20:22:51.257Z,1.90
2023-04-08T20:25:19.378Z,2.40
2023-04-08T20:27:47.398Z,2.00
2023-04-08T20:30:15.304Z,2.13
2023-04-08T20:32:43.364Z,2.40
2023-04-08T20:35:13.586Z,1.73
2023-04-08T20:37:41.715Z,2.00
2023-04-08T20:40:10.512Z,2.03
2023-04-08T20:42:38.749Z,2.27
2023-04-08T20:45:07.268Z,2.50
2023-04-08T20:47:35.263Z,2.10
2023-04-08T20:50:03.689Z,2.20
2023-04-08T20:52:33.055Z,2.43
2023-04-08T20:55:01.171Z,2.20
2023-04-08T20:57:29.110Z,2.20
2023-04-08T20:59:57.537Z,2.30
2023-04-08T21:02:25.557Z,2.40
2023-04-08T21:04:53.536Z,2.37
2023-04-08T21:07:21.417Z,2.33
2023-04-08T21:09:50.717Z,2.23
2023-04-08T21:12:18.589Z,2.27
2023-04-08T21:14:47.375Z,2.13
2023-04-08T21:17:15.414Z,2.53
2023-04-08T21:19:43.446Z,2.53
2023-04-08T21:22:11.444Z,2.40
2023-04-08T21:24:39.385Z,3.03
2023-04-08T21:27:08.703Z,2.30
2023-04-08T21:29:36.635Z,2.63
2023-04-08T21:32:04.627Z,2.33
2023-04-08T21:34:32.573Z,3.17
2023-04-08T21:37:00.718Z,2.67
2023-04-08T21:39:28.617Z,2.83
2023-04-08T21:41:56.977Z,3.10
2023-04-08T21:44:26.939Z,2.70
2023-04-08T21:46:55.368Z,2.67
2023-04-08T21:49:23.354Z,3.00
2023-04-08T21:51:51.276Z,2.70
2023-04-08T21:54:19.188Z,3.07
2023-04-08T21:56:47.184Z,2.67
2023-04-08T21:59:15.067Z,2.87
2023-04-08T22:01:44.621Z,3.10
2023-04-08T22:04:12.790Z,2.83
2023-04-08T22:06:40.827Z,2.80
2023-04-08T22:09:08.749Z,2.77
2023-04-08T22:11:36.628Z,2.57
2023-04-08T22:14:04.591Z,2.93
2023-04-08T22:16:33.375Z,2.53
2023-04-08T22:19:02.700Z,2.90
2023-04-08T22:21:30.611Z,2.70
2023-04-08T22:23:58.525Z,2.77
2023-04-08T22:26:27.164Z,3.27
2023-04-08T22:28:55.265Z,2.57
2023-04-08T22:31:23.397Z,2.90
2023-04-08T22:33:51.363Z,4.00
2023-04-08T22:36:20.748Z,3.10
2023-04-08T22:38:48.738Z,3.23
2023-04-08T22:41:19.973Z,3.03
2023-04-08T22:43:47.908Z,3.40
2023-04-08T22:46:18.226Z,4.70
2023-04-08T22:48:46.351Z,3.33
2023-04-08T22:51:14.415Z,3.27
2023-04-08T22:53:43.884Z,3.50
2023-04-08T22:56:11.941Z,3.37
2023-04-08T22:58:39.817Z,2.80
2023-04-08T23:01:18.329Z,3.50
2023-04-08T23:03:46.537Z,3.07
2023-04-08T23:06:14.630Z,2.87
2023-04-08T23:08:44.094Z,2.90
2023-04-08T23:11:12.085Z,3.80
2023-04-08T23:13:40.049Z,3.33
2023-04-08T23:16:09.472Z,3.20
2023-04-08T23:18:37.395Z,2.87
2023-04-08T23:21:05.393Z,3.20
2023-04-08T23:23:33.388Z,2.90
2023-04-08T23:26:02.805Z,3.63
2023-04-08T23:28:30.710Z,3.00
2023-04-08T23:30:58.704Z,3.10
2023-04-08T23:33:26.674Z,3.47
2023-04-08T23:35:54.598Z,17.90
2023-04-08T23:38:22.529Z,9.03
2023-04-08T23:40:51.584Z,10.63
2023-04-08T23:43:20.925Z,5.90
2023-04-08T23:45:48.796Z,3.67
2023-04-08T23:48:16.700Z,2.90
2023-04-08T23:50:44.662Z,2.87
2023-04-08T23:53:12.557Z,2.80
2023-04-08T23:55:40.458Z,2.77
2023-04-08T23:58:08.398Z,3.03
